createdAt,value
2022-08-10T00:01:01.857Z,39.53
2022-08-10T00:03:28.277Z,40.02
2022-08-10T00:05:56.368Z,40.10
2022-08-10T00:08:25.086Z,39.66
2022-08-10T00:10:56.094Z,40.40
2022-08-10T00:13:24.181Z,39.58
2022-08-10T00:15:55.007Z,39.63
2022-08-10T00:18:31.569Z,40.08
2022-08-10T00:21:04.764Z,40.52
2022-08-10T00:23:31.181Z,40.49
2022-08-10T00:25:57.533Z,40.29
2022-08-10T00:28:23.843Z,40.21
2022-08-10T00:30:50.284Z,40.46
2022-08-10T00:33:16.870Z,40.83
2022-08-10T00:35:43.294Z,40.23
2022-08-10T00:38:10.226Z,40.06
2022-08-10T00:40:37.826Z,40.68
2022-08-10T00:43:06.044Z,40.40
2022-08-10T00:45:32.774Z,40.06
2022-08-10T00:47:59.134Z,40.34
2022-08-10T00:50:25.578Z,39.85
2022-08-10T00:52:52.086Z,40.24
2022-08-10T00:55:19.159Z,40.09
2022-08-10T00:57:46.490Z,40.47
2022-08-10T01:00:23.128Z,40.90
2022-08-10T01:02:49.546Z,40.92
2022-08-10T01:05:16.208Z,40.59
2022-08-10T01:07:56.522Z,40.80
2022-08-10T01:10:29.438Z,41.28
2022-08-10T01:13:24.753Z,41.45
2022-08-10T01:16:15.086Z,41.46
2022-08-10T01:19:04.505Z,41.23
2022-08-10T01:21:56.788Z,41.67
2022-08-10T01:24:45.515Z,41.88
2022-08-10T01:27:36.407Z,42.03
2022-08-10T01:30:06.550Z,42.21
2022-08-10T01:32:39.667Z,42.25
2022-08-10T01:35:17.419Z,42.29
2022-08-10T01:37:52.302Z,42.46
2022-08-10T01:40:24.931Z,42.19
2022-08-10T01:42:54.475Z,41.98
2022-08-10T01:45:24.365Z,42.22
2022-08-10T01:48:16.580Z,42.17
2022-08-10T01:50:59.652Z,42.10
2022-08-10T01:53:41.233Z,42.35
2022-08-10T01:56:11.206Z,42.00
2022-08-10T01:58:38.896Z,41.79
2022-08-10T02:01:10.018Z,42.11
2022-08-10T02:04:04.045Z,41.88
2022-08-10T02:06:29.985Z,41.97
2022-08-10T02:09:06.188Z,41.79
2022-08-10T02:12:05.201Z,41.82
2022-08-10T02:14:21.413Z,42.63
2022-08-10T02:16:50.704Z,43.31
2022-08-10T02:19:21.819Z,43.54
2022-08-10T02:22:34.973Z,44.13
2022-08-10T02:24:40.875Z,44.67
2022-08-10T02:27:08.624Z,43.91
2022-08-10T02:29:36.738Z,43.39
2022-08-10T02:32:10.001Z,42.97
2022-08-10T02:34:39.168Z,43.39
2022-08-10T02:37:10.668Z,43.52
2022-08-10T02:39:37.826Z,43.62
2022-08-10T02:45:13.194Z,43.53
2022-08-10T02:45:18.931Z,43.70
2022-08-10T02:48:13.793Z,43.19
2022-08-10T02:50:43.066Z,43.41
2022-08-10T02:53:54.670Z,42.71
2022-08-10T02:56:09.191Z,42.84
2022-08-10T02:58:42.099Z,42.97
2022-08-10T03:01:12.233Z,43.09
2022-08-10T03:03:45.139Z,43.12
2022-08-10T03:06:16.883Z,43.08
2022-08-10T03:08:45.147Z,42.96
2022-08-10T03:12:35.640Z,43.02
2022-08-10T03:16:36.766Z,43.23
2022-08-10T03:19:06.204Z,43.10
2022-08-10T03:21:54.343Z,42.70
2022-08-10T03:24:32.963Z,42.60
2022-08-10T03:27:00.404Z,42.79
2022-08-10T03:29:28.558Z,42.96
2022-08-10T03:31:56.191Z,43.49
2022-08-10T03:34:33.295Z,43.31
2022-08-10T03:37:00.549Z,43.14
2022-08-10T03:39:27.443Z,43.08
2022-08-10T03:41:58.556Z,42.92
2022-08-10T03:44:29.666Z,43.42
2022-08-10T03:46:59.944Z,43.74
2022-08-10T03:49:28.168Z,43.14
2022-08-10T03:51:55.330Z,43.05
2022-08-10T03:54:24.234Z,42.96
2022-08-10T03:56:51.344Z,43.05
2022-08-10T03:59:17.862Z,43.24
2022-08-10T04:02:42.192Z,43.13
2022-08-10T04:04:33.373Z,43.03
2022-08-10T04:07:00.701Z,42.75
2022-08-10T04:09:53.190Z,43.04
2022-08-10T04:12:18.652Z,43.02
2022-08-10T04:14:51.249Z,43.07
2022-08-10T04:18:02.762Z,43.35
2022-08-10T04:20:17.529Z,43.02
2022-08-10T04:22:46.823Z,43.25
2022-08-10T04:25:16.001Z,43.47
2022-08-10T04:27:43.750Z,43.16
2022-08-10T04:30:10.706Z,42.92
2022-08-10T04:32:37.847Z,43.25
2022-08-10T04:35:06.763Z,42.76
2022-08-10T04:37:37.160Z,43.13
2022-08-10T04:40:29.648Z,42.93
2022-08-10T04:43:07.274Z,43.07
2022-08-10T04:45:47.837Z,43.49
2022-08-10T04:48:42.687Z,43.37
2022-08-10T04:51:17.492Z,43.71
2022-08-10T04:54:05.222Z,43.83
2022-08-10T04:56:32.627Z,43.62
2022-08-10T04:59:00.359Z,43.76
2022-08-10T05:01:27.395Z,43.87
2022-08-10T05:04:36.278Z,44.17
2022-08-10T05:06:59.918Z,44.32
2022-08-10T05:09:26.244Z,44.80
2022-08-10T05:11:52.560Z,44.96
2022-08-10T05:14:18.905Z,44.79
2022-08-10T05:16:45.263Z,44.86
2022-08-10T05:19:11.586Z,45.32
2022-08-10T05:22:02.946Z,44.93
2022-08-10T05:24:24.852Z,45.58
2022-08-10T05:27:00.186Z,45.27
2022-08-10T05:29:36.788Z,45.70
2022-08-10T05:32:03.517Z,45.83
2022-08-10T05:34:30.195Z,45.36
2022-08-10T05:36:57.656Z,45.53
2022-08-10T05:39:28.808Z,45.86
2022-08-10T05:42:01.496Z,45.85
2022-08-10T05:44:29.015Z,45.89
2022-08-10T05:46:55.413Z,45.94
2022-08-10T05:49:22.009Z,46.41
2022-08-10T05:51:48.461Z,47.48
2022-08-10T05:54:15.482Z,47.48
2022-08-10T05:56:54.147Z,47.50
2022-08-10T06:00:30.882Z,47.92
2022-08-10T06:02:35.047Z,47.83
2022-08-10T06:05:11.315Z,48.56
2022-08-10T06:07:51.696Z,48.60
2022-08-10T06:10:31.229Z,49.03
2022-08-10T06:13:30.137Z,49.01
2022-08-10T06:16:04.222Z,48.19
2022-08-10T06:18:31.103Z,48.33
2022-08-10T06:20:57.830Z,48.28
2022-08-10T06:23:26.359Z,48.15
2022-08-10T06:26:09.955Z,47.50
2022-08-10T06:28:42.839Z,46.84
2022-08-10T06:31:19.929Z,46.98
2022-08-10T06:33:46.708Z,46.03
2022-08-10T06:36:15.269Z,46.86
2022-08-10T06:38:43.242Z,48.39
2022-08-10T06:41:20.185Z,47.82
2022-08-10T06:43:55.469Z,48.04
2022-08-10T06:46:23.098Z,48.02
2022-08-10T06:48:59.657Z,48.16
2022-08-10T06:51:31.019Z,47.78
2022-08-10T06:54:01.770Z,48.21
2022-08-10T06:56:36.128Z,48.35
2022-08-10T06:59:22.237Z,48.53
2022-08-10T07:01:59.511Z,48.29
2022-08-10T07:04:40.374Z,47.63
2022-08-10T07:07:08.520Z,48.18
2022-08-10T07:09:38.916Z,47.79
2022-08-10T07:12:09.313Z,47.78
2022-08-10T07:14:44.083Z,47.62
2022-08-10T07:17:20.614Z,47.09
2022-08-10T07:19:52.245Z,47.65
2022-08-10T07:23:26.911Z,47.49
2022-08-10T07:25:14.779Z,46.86
2022-08-10T07:28:00.901Z,47.01
2022-08-10T07:30:36.006Z,46.85
2022-08-10T07:33:04.567Z,46.45
2022-08-10T07:35:41.599Z,46.30
2022-08-10T07:38:18.026Z,45.98
2022-08-10T07:40:46.397Z,46.35
2022-08-10T07:43:14.871Z,46.50
2022-08-10T07:45:41.250Z,45.62
2022-08-10T07:48:13.532Z,45.72
2022-08-10T07:50:41.046Z,45.43
2022-08-10T07:53:16.686Z,45.83
2022-08-10T07:56:05.593Z,45.23
2022-08-10T07:58:46.309Z,45.65
2022-08-10T08:01:22.943Z,44.99
2022-08-10T08:04:10.761Z,45.61
2022-08-10T08:06:38.676Z,45.15
2022-08-10T08:09:05.937Z,44.86
2022-08-10T08:11:33.534Z,44.63
2022-08-10T08:14:01.859Z,44.02
2022-08-10T08:16:32.218Z,44.19
2022-08-10T08:24:06.977Z,43.47
2022-08-10T08:24:37.658Z,43.59
2022-08-10T08:27:05.823Z,44.75
2022-08-10T08:29:36.141Z,44.28
2022-08-10T08:32:04.195Z,44.13
2022-08-10T08:34:38.492Z,44.12
2022-08-10T08:37:07.087Z,43.57
2022-08-10T08:39:33.886Z,43.38
2022-08-10T08:42:24.744Z,43.42
2022-08-10T08:45:06.941Z,43.26
2022-08-10T08:48:04.118Z,43.97
2022-08-10T08:50:35.090Z,42.82
2022-08-10T08:54:01.667Z,44.12
2022-08-10T08:56:35.015Z,42.67
2022-08-10T08:59:07.269Z,42.16
2022-08-10T09:01:55.710Z,41.29
2022-08-10T09:04:48.289Z,41.27
2022-08-10T09:08:01.978Z,40.43
2022-08-10T09:10:40.777Z,40.75
2022-08-10T09:13:17.659Z,40.78
2022-08-10T09:16:00.051Z,40.33
2022-08-10T09:18:42.346Z,40.03
2022-08-10T09:21:36.026Z,39.21
2022-08-10T09:24:36.176Z,38.27
2022-08-10T09:27:09.373Z,38.91
2022-08-10T09:29:44.796Z,38.86
2022-08-10T09:36:13.627Z,39.05
2022-08-10T09:36:23.689Z,39.00
2022-08-10T09:38:24.775Z,38.59
2022-08-10T09:41:16.169Z,38.42
2022-08-10T09:44:00.281Z,38.08
2022-08-10T09:46:47.490Z,37.45
2022-08-10T09:49:53.521Z,37.66
2022-08-10T09:52:34.533Z,37.55
2022-08-10T09:55:13.294Z,37.87
2022-08-10T09:57:58.836Z,38.38
2022-08-10T10:00:34.694Z,37.46
2022-08-10T10:03:26.603Z,37.55
2022-08-10T10:06:12.633Z,37.88
2022-08-10T10:09:10.010Z,38.23
2022-08-10T10:12:05.327Z,37.80
2022-08-10T10:15:24.297Z,37.73
2022-08-10T10:18:19.545Z,37.91
2022-08-10T10:21:08.158Z,37.26
2022-08-10T10:24:05.595Z,37.08
2022-08-10T10:27:16.002Z,36.29
2022-08-10T10:30:08.145Z,36.27
2022-08-10T10:32:37.403Z,36.22
2022-08-10T10:35:23.459Z,36.74
2022-08-10T10:38:01.407Z,36.94
2022-08-10T10:40:37.493Z,37.13
2022-08-10T10:43:41.459Z,36.40
2022-08-10T10:46:24.462Z,35.93
2022-08-10T10:49:28.125Z,35.91
2022-08-10T10:52:02.493Z,35.64
2022-08-10T10:54:41.542Z,35.92
2022-08-10T10:57:19.077Z,36.06
2022-08-10T11:00:08.053Z,35.79
2022-08-10T11:03:11.059Z,35.40
2022-08-10T11:05:40.619Z,35.00
2022-08-10T11:08:29.435Z,35.63
2022-08-10T11:11:02.931Z,35.47
2022-08-10T11:14:27.365Z,34.32
2022-08-10T11:17:00.148Z,34.40
2022-08-10T11:20:00.456Z,34.18
2022-08-10T11:22:50.444Z,34.22
2022-08-10T11:25:29.773Z,34.87
2022-08-10T11:28:17.771Z,35.12
2022-08-10T11:31:01.467Z,35.28
2022-08-10T11:34:11.295Z,34.49
2022-08-10T11:37:03.826Z,33.50
2022-08-10T11:39:30.109Z,33.38
2022-08-10T11:42:16.503Z,32.93
2022-08-10T11:44:59.856Z,32.61
2022-08-10T11:47:39.151Z,33.33
2022-08-10T11:50:31.801Z,35.08
2022-08-10T11:53:09.747Z,33.75
2022-08-10T11:55:36.510Z,33.26
2022-08-10T11:58:30.908Z,33.23
2022-08-10T12:01:02.236Z,32.50
2022-08-10T12:03:34.738Z,31.55
2022-08-10T12:06:02.490Z,31.73
2022-08-10T12:10:11.000Z,31.89
2022-08-10T12:11:27.961Z,31.74
2022-08-10T12:14:22.473Z,31.86
2022-08-10T12:16:57.600Z,31.21
2022-08-10T12:19:58.996Z,32.08
2022-08-10T12:22:33.083Z,32.38
2022-08-10T12:25:04.009Z,31.97
2022-08-10T12:27:41.576Z,32.15
2022-08-10T12:30:10.616Z,31.54
2022-08-10T12:33:07.780Z,30.74
2022-08-10T12:35:37.346Z,30.81
2022-08-10T12:38:10.051Z,30.59
2022-08-10T12:40:47.793Z,30.24
2022-08-10T12:44:07.932Z,30.10
2022-08-10T12:46:41.495Z,30.26
2022-08-10T12:49:29.002Z,30.09
2022-08-10T12:52:04.937Z,29.11
2022-08-10T12:54:36.340Z,30.36
2022-08-10T12:57:10.166Z,29.59
2022-08-10T12:59:43.179Z,29.57
2022-08-10T13:02:14.705Z,29.99
2022-08-10T13:04:43.015Z,30.57
2022-08-10T13:07:10.176Z,29.72
2022-08-10T13:09:54.796Z,29.45
2022-08-10T13:12:36.017Z,28.79
2022-08-10T13:15:48.888Z,28.92
2022-08-10T13:18:18.400Z,28.31
2022-08-10T13:20:50.594Z,27.84
2022-08-10T13:23:28.875Z,28.11
2022-08-10T13:25:57.964Z,27.59
2022-08-10T13:28:39.625Z,27.33
2022-08-10T13:31:11.507Z,27.82
2022-08-10T13:34:39.032Z,28.46
2022-08-10T13:36:40.264Z,27.55
2022-08-10T13:39:08.414Z,27.61
2022-08-10T13:41:43.804Z,26.94
2022-08-10T13:44:15.337Z,27.12
2022-08-10T13:46:49.807Z,27.27
2022-08-10T13:49:19.069Z,27.73
2022-08-10T13:51:57.743Z,27.92
2022-08-10T13:54:27.289Z,27.29
2022-08-10T13:56:55.802Z,27.13
2022-08-10T14:00:33.861Z,27.53
2022-08-10T14:02:21.373Z,27.18
2022-08-10T14:04:48.076Z,27.32
2022-08-10T14:07:17.667Z,26.84
2022-08-10T14:09:47.446Z,26.97
2022-08-10T14:12:15.084Z,26.74
2022-08-10T14:14:43.899Z,26.70
2022-08-10T14:17:12.480Z,26.73
2022-08-10T14:19:43.395Z,26.04
2022-08-10T14:22:10.443Z,26.71
2022-08-10T14:24:36.888Z,25.67
2022-08-10T14:27:09.978Z,25.72
2022-08-10T14:29:45.099Z,25.37
2022-08-10T14:32:14.908Z,25.22
2022-08-10T14:36:16.111Z,24.84
2022-08-10T14:37:37.515Z,25.33
2022-08-10T14:40:07.717Z,25.74
2022-08-10T14:42:45.632Z,25.61
2022-08-10T14:45:38.818Z,25.17
2022-08-10T14:48:13.652Z,25.02
2022-08-10T14:50:55.099Z,24.96
2022-08-10T14:53:26.891Z,24.83
2022-08-10T14:56:00.973Z,24.65
2022-08-10T14:58:35.511Z,24.11
2022-08-10T15:01:04.561Z,24.00
2022-08-10T15:04:01.263Z,23.81
2022-08-10T15:06:30.431Z,24.28
2022-08-10T15:09:19.304Z,24.72
2022-08-10T15:12:15.901Z,24.80
2022-08-10T15:14:42.844Z,24.43
2022-08-10T15:17:13.539Z,24.86
2022-08-10T15:20:03.265Z,24.60
2022-08-10T15:22:38.112Z,23.73
2022-08-10T15:25:18.715Z,23.93
2022-08-10T15:27:54.713Z,23.52
2022-08-10T15:30:30.995Z,24.15
2022-08-10T15:33:21.375Z,24.64
2022-08-10T15:36:26.187Z,24.43
2022-08-10T15:39:17.219Z,24.37
2022-08-10T15:42:04.322Z,23.90
2022-08-10T15:44:40.808Z,24.13
2022-08-10T15:47:45.743Z,24.06
2022-08-10T15:50:22.420Z,23.83
2022-08-10T15:53:00.523Z,24.26
2022-08-10T15:55:45.713Z,23.72
2022-08-10T15:58:37.693Z,24.28
2022-08-10T16:02:13.766Z,23.65
2022-08-10T16:04:31.849Z,24.13
2022-08-10T16:07:12.632Z,24.41
2022-08-10T16:10:10.759Z,23.66
2022-08-10T16:12:59.771Z,23.92
2022-08-10T16:15:29.062Z,23.69
2022-08-10T16:18:01.726Z,23.45
2022-08-10T16:20:32.142Z,24.09
2022-08-10T16:23:02.236Z,23.88
2022-08-10T16:25:48.124Z,23.53
2022-08-10T16:28:23.277Z,23.55
2022-08-10T16:30:54.038Z,23.07
2022-08-10T16:33:27.610Z,23.33
2022-08-10T16:36:17.467Z,23.39
2022-08-10T16:38:46.896Z,23.11
2022-08-10T16:41:20.891Z,23.20
2022-08-10T16:44:03.950Z,23.07
2022-08-10T16:46:31.839Z,23.38
2022-08-10T16:49:00.853Z,24.15
2022-08-10T16:51:27.779Z,24.27
2022-08-10T16:53:55.403Z,23.98
2022-08-10T16:56:31.524Z,24.17
2022-08-10T16:58:58.987Z,23.89
2022-08-10T17:01:28.159Z,23.54
2022-08-10T17:04:06.173Z,23.69
2022-08-10T17:06:41.046Z,23.10
2022-08-10T17:09:15.978Z,23.40
2022-08-10T17:11:46.742Z,23.08
2022-08-10T17:14:13.647Z,22.86
2022-08-10T17:16:50.644Z,22.82
2022-08-10T17:19:24.414Z,23.08
2022-08-10T17:21:56.414Z,23.10
2022-08-10T17:24:30.135Z,23.13
2022-08-10T17:27:02.126Z,23.38
2022-08-10T17:29:58.826Z,23.43
2022-08-10T17:32:44.367Z,23.71
2022-08-10T17:35:14.032Z,23.53
2022-08-10T17:38:00.488Z,23.67
2022-08-10T17:40:41.186Z,23.02
2022-08-10T17:43:08.580Z,23.76
2022-08-10T17:45:47.700Z,23.55
2022-08-10T17:48:18.270Z,24.39
2022-08-10T17:50:50.042Z,23.70
2022-08-10T17:53:21.260Z,23.97
2022-08-10T17:55:54.067Z,23.83
2022-08-10T17:58:21.811Z,24.16
2022-08-10T18:01:40.894Z,24.94
2022-08-10T18:03:52.220Z,25.49
2022-08-10T18:06:20.345Z,25.21
2022-08-10T18:08:52.652Z,25.50
2022-08-10T18:11:20.329Z,25.49
2022-08-10T18:13:55.520Z,25.65
2022-08-10T18:16:27.456Z,26.16
2022-08-10T18:19:00.350Z,25.73
2022-08-10T18:21:30.978Z,25.99
2022-08-10T18:24:14.217Z,25.87
2022-08-10T18:26:44.646Z,26.11
2022-08-10T18:29:18.838Z,26.41
2022-08-10T18:31:48.127Z,26.61
2022-08-10T18:34:20.701Z,26.87
2022-08-10T18:36:50.214Z,27.55
2022-08-10T18:39:25.425Z,28.01
2022-08-10T18:42:00.279Z,27.73
2022-08-10T18:44:36.516Z,27.62
2022-08-10T18:47:11.213Z,27.61
2022-08-10T18:49:37.530Z,28.13
2022-08-10T18:52:07.113Z,28.27
2022-08-10T18:54:44.229Z,28.38
2022-08-10T18:57:39.106Z,28.61
2022-08-10T19:00:13.293Z,28.27
2022-08-10T19:03:05.340Z,28.35
2022-08-10T19:05:58.955Z,29.00
2022-08-10T19:08:58.357Z,29.60
2022-08-10T19:11:56.729Z,29.32
2022-08-10T19:14:36.092Z,29.40
2022-08-10T19:17:15.214Z,29.37
2022-08-10T19:19:50.374Z,28.98
2022-08-10T19:22:26.566Z,29.74
2022-08-10T19:25:16.780Z,29.10
2022-08-10T19:28:06.242Z,29.10
2022-08-10T19:30:45.708Z,29.13
2022-08-10T19:33:42.517Z,29.39
2022-08-10T19:36:17.443Z,29.35
2022-08-10T19:39:01.942Z,29.45
2022-08-10T19:41:44.394Z,29.51
2022-08-10T19:44:14.156Z,29.56
2022-08-10T19:46:51.391Z,29.69
2022-08-10T19:49:42.428Z,30.24
2022-08-10T19:52:34.312Z,30.09
2022-08-10T19:55:15.879Z,30.11
2022-08-10T19:58:05.613Z,30.70
2022-08-10T20:00:40.859Z,30.57
2022-08-10T20:03:25.324Z,30.93
2022-08-10T20:06:19.568Z,30.54
2022-08-10T20:08:55.140Z,30.94
2022-08-10T20:11:45.694Z,30.87
2022-08-10T20:14:22.259Z,30.90
2022-08-10T20:16:51.455Z,31.19
2022-08-10T20:19:53.397Z,31.42
2022-08-10T20:22:29.520Z,31.16
2022-08-10T20:25:04.153Z,31.57
2022-08-10T20:27:59.498Z,31.56
2022-08-10T20:30:27.065Z,31.62
2022-08-10T20:32:59.621Z,31.40
2022-08-10T20:35:27.802Z,31.68
2022-08-10T20:38:19.240Z,31.86
2022-08-10T20:40:55.504Z,31.76
2022-08-10T20:43:40.619Z,32.08
2022-08-10T20:46:33.332Z,33.45
2022-08-10T20:49:22.353Z,32.93
2022-08-10T20:51:59.092Z,33.37
2022-08-10T20:54:31.978Z,33.59
2022-08-10T20:57:54.310Z,32.68
2022-08-10T21:00:22.943Z,33.06
2022-08-10T21:03:14.113Z,32.83
2022-08-10T21:06:31.426Z,33.16
2022-08-10T21:09:25.953Z,32.68
2022-08-10T21:12:07.390Z,32.54
2022-08-10T21:15:14.101Z,32.30
2022-08-10T21:18:08.238Z,32.67
2022-08-10T21:20:54.263Z,33.31
2022-08-10T21:23:30.391Z,32.95
2022-08-10T21:26:10.256Z,33.24
2022-08-10T21:29:20.433Z,32.73
2022-08-10T21:32:12.063Z,32.83
2022-08-10T21:35:09.372Z,33.32
2022-08-10T21:37:56.873Z,32.40
2022-08-10T21:40:37.532Z,33.04
2022-08-10T21:43:52.175Z,32.93
2022-08-10T21:50:08.065Z,33.02
2022-08-10T21:53:04.606Z,32.64
2022-08-10T21:56:01.887Z,32.76
2022-08-10T21:59:01.967Z,33.19
2022-08-10T22:02:12.045Z,33.24
2022-08-10T22:04:57.992Z,33.14
2022-08-10T22:07:45.708Z,33.43
2022-08-10T22:10:32.459Z,33.47
2022-08-10T22:13:20.206Z,32.94
2022-08-10T22:16:15.612Z,33.10
2022-08-10T22:19:04.889Z,33.27
2022-08-10T22:22:27.597Z,33.08
2022-08-10T22:25:29.077Z,32.71
2022-08-10T22:28:18.203Z,33.01
2022-08-10T22:31:27.082Z,32.55
2022-08-10T22:31:30.747Z,33.58
2022-08-10T22:35:02.463Z,32.54
2022-08-10T22:38:07.894Z,33.09
2022-08-10T22:40:53.640Z,33.99
2022-08-10T22:43:45.226Z,34.14
2022-08-10T22:46:42.271Z,34.99
2022-08-10T22:49:09.227Z,34.98
2022-08-10T22:51:47.451Z,34.85
2022-08-10T22:54:45.090Z,35.21
2022-08-10T22:57:32.486Z,35.93
2022-08-10T22:59:59.122Z,35.03
2022-08-10T23:02:32.487Z,34.69
2022-08-10T23:05:12.571Z,35.63
2022-08-10T23:07:49.289Z,34.58
2022-08-10T23:10:20.516Z,34.62
2022-08-10T23:12:48.665Z,34.70
2022-08-10T23:15:40.245Z,34.67
2022-08-10T23:18:29.074Z,34.17
2022-08-10T23:20:56.908Z,34.06
2022-08-10T23:23:25.604Z,34.19
2022-08-10T23:25:57.483Z,34.00
2022-08-10T23:28:38.610Z,33.87
2022-08-10T23:31:14.467Z,34.27
2022-08-10T23:33:42.568Z,34.21
2022-08-10T23:36:33.293Z,34.10
2022-08-10T23:39:25.430Z,34.19
2022-08-10T23:41:57.049Z,34.06
2022-08-10T23:44:25.324Z,33.56
2022-08-10T23:46:53.540Z,33.47
2022-08-10T23:49:20.791Z,33.79
2022-08-10T23:51:56.386Z,33.92
2022-08-10T23:54:24.753Z,34.03
2022-08-10T23:56:56.254Z,33.67
2022-08-10T23:59:24.942Z,33.83
